Saltar para o conteúdo principal

Portimão (Aeródromo)

ID 1210878 · 37.1492, -8.5814 mapa

Última leitura · 2026-05-09 18:00 (Europe/Lisbon)

Temperatura
17.9 °C
Humidade
73 %
Pressão
1,009.7 hPa
Precipitação
Radiação
1,173 W/m²
Velocidade do vento
21.6 km/h
Direcção do vento
SW · Sudoeste

Histórico de 24 horas

Hora (Europe/Lisbon) Temperatura Humidade Pressão Chuva Vento Direcção
2026-05-09 18:00 17.9 °C 73 % 1,009.7 21.6 km/h SW
2026-05-09 17:00 18.8 °C 70 % 1,009.3 21.2 km/h SW
2026-05-09 16:00 20.1 °C 64 % 1,009.0 24.1 km/h SW
2026-05-09 15:00 19.9 °C 68 % 1,008.4 27.7 km/h SW
2026-05-09 14:00 18.9 °C 72 % 1,008.2 19.8 km/h SW
2026-05-09 13:00 18.7 °C 68 % 1,008.0 18.7 km/h SW
2026-05-09 12:00 18.5 °C 69 % 1,007.4 24.1 km/h SW
2026-05-09 11:00 17.7 °C 74 % 1,006.6 22.7 km/h SW
2026-05-09 10:00 16.7 °C 86 % 1,005.7 21.6 km/h SW
2026-05-09 09:00 15.2 °C 92 % 1,004.7 13.0 km/h SW
2026-05-09 08:00 15.2 °C 91 % 1,003.7 8.6 km/h SW
2026-05-09 07:00 15.6 °C 88 % 1,003.6 14.4 km/h S
2026-05-09 06:00 15.6 °C 86 % 1,004.2 13.3 km/h S
2026-05-09 05:00 16.1 °C 86 % 1,004.5 20.2 km/h S
2026-05-09 04:00 15.9 °C 89 % 1,005.1 16.9 km/h S
2026-05-09 03:00 14.9 °C 90 % 1,005.9 8.6 km/h SE
2026-05-09 02:00 15.1 °C 89 % 1,006.7 11.5 km/h SE
2026-05-09 01:00 15.1 °C 88 % 1,007.4 12.6 km/h SE
2026-05-09 00:00 14.3 °C 91 % 1,007.9 13.0 km/h SE
2026-05-08 23:00 13.6 °C 96 % 1,008.2 9.0 km/h SE
2026-05-08 22:00 13.1 °C 95 % 1,008.4 10.1 km/h E
2026-05-08 21:00 15.2 °C 88 % 1,008.1 4.7 km/h SW
2026-05-08 20:00 15.5 °C 87 % 1,008.0 15.8 km/h SE
2026-05-08 19:00 15.5 °C 90 % 1,008.2 16.2 km/h SE